createdAt,value
2023-05-05T00:01:20.094Z,4.10
2023-05-05T00:03:46.642Z,3.90
2023-05-05T00:06:12.812Z,3.97
2023-05-05T00:08:38.947Z,3.90
2023-05-05T00:11:05.100Z,4.10
2023-05-05T00:13:31.942Z,4.47
2023-05-05T00:15:58.059Z,4.00
2023-05-05T00:18:24.181Z,3.73
2023-05-05T00:20:50.716Z,4.00
2023-05-05T00:23:19.155Z,3.90
2023-05-05T00:25:45.411Z,3.97
2023-05-05T00:28:13.201Z,3.50
2023-05-05T00:30:40.214Z,4.10
2023-05-05T00:33:06.385Z,3.67
2023-05-05T00:35:32.617Z,4.00
2023-05-05T00:37:59.050Z,4.00
2023-05-05T00:40:25.353Z,4.10
2023-05-05T00:42:51.567Z,4.20
2023-05-05T00:45:18.671Z,3.97
2023-05-05T00:47:47.384Z,4.30
2023-05-05T00:50:21.063Z,4.20
2023-05-05T00:52:47.221Z,4.60
2023-05-05T00:55:13.521Z,4.37
2023-05-05T00:57:39.700Z,4.43
2023-05-05T01:00:09.085Z,4.30
2023-05-05T01:02:35.649Z,4.23
2023-05-05T01:05:02.920Z,4.67
2023-05-05T01:07:36.578Z,4.20
2023-05-05T01:10:18.073Z,4.17
2023-05-05T01:12:51.453Z,4.30
2023-05-05T01:15:23.539Z,4.60
2023-05-05T01:17:55.602Z,4.33
2023-05-05T01:20:27.931Z,4.10
2023-05-05T01:22:58.901Z,4.87
2023-05-05T01:25:48.564Z,4.37
2023-05-05T01:28:24.043Z,4.53
2023-05-05T01:31:01.197Z,4.67
2023-05-05T01:33:31.562Z,5.20
2023-05-05T01:36:02.863Z,5.10
2023-05-05T01:38:33.762Z,4.80
2023-05-05T01:41:10.560Z,4.90
2023-05-05T01:43:37.080Z,5.23
2023-05-05T01:46:05.375Z,5.50
2023-05-05T01:48:32.736Z,4.93
2023-05-05T01:51:00.472Z,5.23
2023-05-05T01:53:27.150Z,5.43
2023-05-05T01:55:54.186Z,5.53
2023-05-05T01:58:21.602Z,6.40
2023-05-05T02:00:48.476Z,5.80
2023-05-05T02:03:15.983Z,6.10
2023-05-05T02:05:43.770Z,5.20
2023-05-05T02:08:10.417Z,5.80
2023-05-05T02:10:40.011Z,6.03
2023-05-05T02:13:06.764Z,5.50
2023-05-05T02:15:33.869Z,5.57
2023-05-05T02:18:01.174Z,5.63
2023-05-05T02:20:28.459Z,5.37
2023-05-05T02:22:55.351Z,5.43
2023-05-05T02:25:22.214Z,5.43
2023-05-05T02:27:49.036Z,5.73
2023-05-05T02:30:17.877Z,5.63
2023-05-05T02:32:46.266Z,5.90
2023-05-05T02:35:15.240Z,6.30
2023-05-05T02:37:43.879Z,5.57
2023-05-05T02:40:11.475Z,5.80
2023-05-05T02:42:40.386Z,5.63
2023-05-05T02:45:10.856Z,5.63
2023-05-05T02:47:37.913Z,6.20
2023-05-05T02:50:06.016Z,6.70
2023-05-05T02:52:32.337Z,5.93
2023-05-05T02:54:58.861Z,5.90
2023-05-05T02:57:31.868Z,5.83
2023-05-05T03:00:04.811Z,5.80
2023-05-05T03:02:36.428Z,6.00
2023-05-05T03:05:06.492Z,6.23
2023-05-05T03:07:38.229Z,6.93
2023-05-05T03:10:08.824Z,7.70
2023-05-05T03:12:39.684Z,6.33
2023-05-05T03:15:09.228Z,7.47
2023-05-05T03:17:35.979Z,6.90
2023-05-05T03:20:04.481Z,6.67
2023-05-05T03:22:31.018Z,6.40
2023-05-05T03:24:57.158Z,7.33
2023-05-05T03:27:23.378Z,7.07
2023-05-05T03:29:50.312Z,7.53
2023-05-05T03:32:16.537Z,7.13
2023-05-05T03:34:42.662Z,7.03
2023-05-05T03:37:08.810Z,7.53
2023-05-05T03:39:35.335Z,7.73
2023-05-05T03:42:01.573Z,6.50
2023-05-05T03:44:27.704Z,7.60
2023-05-05T03:46:54.465Z,7.43
2023-05-05T03:49:20.727Z,7.23
2023-05-05T03:51:46.873Z,7.53
2023-05-05T03:54:13.425Z,6.90
2023-05-05T03:56:39.583Z,7.23
2023-05-05T03:59:05.938Z,7.20
2023-05-05T04:01:32.112Z,7.40
2023-05-05T04:03:58.903Z,6.67
2023-05-05T04:06:25.509Z,7.53
2023-05-05T04:08:51.677Z,7.17
2023-05-05T04:11:17.828Z,7.03
2023-05-05T04:13:43.956Z,7.43
2023-05-05T04:16:10.230Z,7.17
2023-05-05T04:18:36.609Z,7.27
2023-05-05T04:21:03.690Z,7.30
2023-05-05T04:23:30.052Z,6.90
2023-05-05T04:25:56.193Z,7.27
2023-05-05T04:28:22.369Z,7.83
2023-05-05T04:30:48.910Z,6.40
2023-05-05T04:33:15.364Z,7.00
2023-05-05T04:35:41.487Z,7.37
2023-05-05T04:38:08.262Z,7.67
2023-05-05T04:40:38.278Z,7.40
2023-05-05T04:43:06.120Z,6.97
2023-05-05T04:45:32.285Z,7.07
2023-05-05T04:47:58.570Z,6.40
2023-05-05T04:50:24.735Z,7.07
2023-05-05T04:52:52.548Z,6.80
2023-05-05T04:59:22.405Z,7.00
2023-05-05T05:01:48.784Z,6.83
2023-05-05T05:04:17.615Z,6.97
2023-05-05T05:06:44.125Z,6.80
2023-05-05T05:09:10.279Z,7.37
2023-05-05T05:11:36.548Z,7.23
2023-05-05T05:14:02.683Z,6.73
2023-05-05T05:16:29.453Z,6.97
2023-05-05T05:18:55.646Z,7.23
2023-05-05T05:21:21.797Z,7.43
2023-05-05T05:23:47.976Z,7.10
2023-05-05T05:26:14.089Z,6.73
2023-05-05T05:28:41.022Z,6.17
2023-05-05T05:31:07.115Z,7.00
2023-05-05T05:33:33.873Z,6.97
2023-05-05T05:36:00.207Z,7.20
2023-05-05T05:38:26.464Z,6.53
2023-05-05T05:40:53.683Z,6.83
2023-05-05T05:43:20.470Z,7.70
2023-05-05T05:45:46.679Z,6.67
2023-05-05T05:48:12.868Z,7.00
2023-05-05T05:50:39.607Z,6.60
2023-05-05T05:53:05.985Z,6.80
2023-05-05T05:55:32.093Z,6.67
2023-05-05T05:57:58.215Z,6.50
2023-05-05T06:00:25.267Z,6.90
2023-05-05T06:02:51.657Z,6.30
2023-05-05T06:05:17.877Z,7.17
2023-05-05T06:07:44.628Z,7.63
2023-05-05T06:10:25.793Z,8.07
2023-05-05T06:12:53.233Z,7.17
2023-05-05T06:15:19.489Z,7.27
2023-05-05T06:17:45.654Z,8.00
2023-05-05T06:20:13.191Z,8.07
2023-05-05T06:22:39.367Z,8.60
2023-05-05T06:25:07.204Z,8.00
2023-05-05T06:27:33.499Z,8.33
2023-05-05T06:29:59.612Z,9.60
2023-05-05T06:32:25.750Z,11.13
2023-05-05T06:34:51.890Z,11.83
2023-05-05T06:37:18.115Z,12.73
2023-05-05T06:39:44.246Z,12.20
2023-05-05T06:42:11.067Z,12.50
2023-05-05T06:44:37.351Z,12.43
2023-05-05T06:47:03.786Z,11.70
2023-05-05T06:49:30.433Z,12.27
2023-05-05T06:51:56.570Z,11.70
2023-05-05T06:54:22.743Z,10.90
2023-05-05T06:56:48.965Z,10.30
2023-05-05T06:59:15.833Z,10.47
2023-05-05T07:01:42.016Z,11.27
2023-05-05T07:04:08.220Z,11.03
2023-05-05T07:06:34.464Z,10.40
2023-05-05T07:09:00.579Z,10.30
2023-05-05T07:11:26.683Z,9.67
2023-05-05T07:13:52.808Z,9.40
2023-05-05T07:16:19.756Z,10.17
2023-05-05T07:18:45.919Z,9.57
2023-05-05T07:21:12.009Z,9.50
2023-05-05T07:23:39.775Z,9.50
2023-05-05T07:26:05.962Z,9.93
2023-05-05T07:28:32.131Z,9.27
2023-05-05T07:30:58.516Z,10.00
2023-05-05T07:33:26.935Z,9.60
2023-05-05T07:35:53.052Z,8.40
2023-05-05T07:38:19.195Z,8.47
2023-05-05T07:40:45.858Z,8.23
2023-05-05T07:43:12.005Z,8.80
2023-05-05T07:45:38.121Z,8.30
2023-05-05T07:48:04.323Z,7.83
2023-05-05T07:50:31.272Z,8.13
2023-05-05T07:53:06.153Z,7.20
2023-05-05T07:55:36.777Z,7.07
2023-05-05T07:58:03.191Z,6.70
2023-05-05T08:00:29.344Z,7.07
2023-05-05T08:02:55.618Z,6.17
2023-05-05T08:05:21.844Z,6.03
2023-05-05T08:07:48.654Z,6.80
2023-05-05T08:10:15.220Z,7.30
2023-05-05T08:12:41.410Z,7.67
2023-05-05T08:15:08.379Z,7.97
2023-05-05T08:17:47.858Z,8.10
2023-05-05T08:20:14.327Z,7.80
2023-05-05T08:22:40.878Z,7.43
2023-05-05T08:25:10.234Z,8.03
2023-05-05T08:27:37.080Z,7.80
2023-05-05T08:30:03.955Z,6.73
2023-05-05T08:32:30.969Z,7.50
2023-05-05T08:34:57.289Z,6.57
2023-05-05T08:37:23.481Z,6.73
2023-05-05T08:39:49.732Z,7.23
2023-05-05T08:42:25.817Z,7.63
2023-05-05T08:44:56.851Z,7.23
2023-05-05T08:47:24.110Z,7.13
2023-05-05T08:49:53.296Z,7.03
2023-05-05T08:52:23.075Z,6.30
2023-05-05T08:54:51.031Z,6.97
2023-05-05T08:57:25.096Z,8.00
2023-05-05T08:59:51.766Z,8.27
2023-05-05T09:02:18.647Z,7.57
2023-05-05T09:04:44.909Z,7.23
2023-05-05T09:07:11.154Z,6.80
2023-05-05T09:09:37.936Z,7.00
2023-05-05T09:12:04.515Z,7.47
2023-05-05T09:14:31.354Z,7.30
2023-05-05T09:16:57.657Z,7.20
2023-05-05T09:19:24.073Z,6.30
2023-05-05T09:21:50.331Z,6.20
2023-05-05T09:24:16.583Z,6.13
2023-05-05T09:26:45.348Z,5.40
2023-05-05T09:29:17.569Z,6.00
2023-05-05T09:31:44.452Z,6.90
2023-05-05T09:34:13.976Z,5.23
2023-05-05T09:36:41.864Z,4.90
2023-05-05T09:39:08.019Z,5.27
2023-05-05T09:41:38.058Z,5.77
2023-05-05T09:44:04.526Z,4.80
2023-05-05T09:46:30.775Z,5.80
2023-05-05T09:49:03.735Z,5.60
2023-05-05T09:51:31.050Z,5.30
2023-05-05T09:53:57.347Z,5.23
2023-05-05T09:56:36.889Z,4.47
2023-05-05T09:59:07.884Z,4.63
2023-05-05T10:01:34.113Z,4.23
2023-05-05T10:04:00.970Z,4.93
2023-05-05T10:06:39.662Z,4.37
2023-05-05T10:09:05.898Z,3.87
2023-05-05T10:11:33.348Z,3.10
2023-05-05T10:13:59.630Z,4.57
2023-05-05T10:16:28.139Z,3.83
2023-05-05T10:18:56.319Z,2.60
2023-05-05T10:21:24.461Z,2.10
2023-05-05T10:23:57.503Z,2.07
2023-05-05T10:26:25.898Z,2.30
2023-05-05T10:28:54.739Z,2.07
2023-05-05T10:31:26.034Z,2.00
2023-05-05T10:33:55.118Z,2.80
2023-05-05T10:36:21.441Z,2.17
2023-05-05T10:38:50.026Z,2.37
2023-05-05T10:41:18.289Z,2.40
2023-05-05T10:43:45.523Z,2.27
2023-05-05T10:46:11.748Z,2.60
2023-05-05T10:48:41.952Z,2.60
2023-05-05T10:51:23.881Z,2.63
2023-05-05T10:54:05.710Z,2.90
2023-05-05T10:56:33.567Z,2.43
2023-05-05T10:59:00.785Z,3.50
2023-05-05T11:01:34.692Z,3.10
2023-05-05T11:04:17.641Z,2.83
2023-05-05T11:07:21.521Z,2.70
2023-05-05T11:09:55.528Z,2.63
2023-05-05T11:12:21.836Z,3.03
2023-05-05T11:14:48.041Z,2.80
2023-05-05T11:17:44.439Z,2.70
2023-05-05T11:20:10.742Z,3.90
2023-05-05T11:23:24.133Z,2.77
2023-05-05T11:25:56.684Z,3.30
2023-05-05T11:28:25.045Z,3.00
2023-05-05T11:31:18.563Z,2.97
2023-05-05T11:33:45.319Z,2.40
2023-05-05T11:36:12.459Z,3.27
2023-05-05T11:38:50.809Z,4.50
2023-05-05T11:41:25.447Z,4.80
2023-05-05T11:44:08.045Z,5.97
2023-05-05T11:46:34.216Z,5.33
2023-05-05T11:49:00.461Z,5.33
2023-05-05T11:51:26.699Z,5.67
2023-05-05T11:53:53.835Z,7.00
2023-05-05T11:56:21.431Z,6.43
2023-05-05T11:58:47.946Z,6.90
2023-05-05T12:01:14.606Z,6.53
2023-05-05T12:03:41.517Z,6.80
2023-05-05T12:06:08.156Z,6.57
2023-05-05T12:08:37.638Z,4.10
2023-05-05T12:11:05.950Z,3.57
2023-05-05T12:13:32.293Z,3.60
2023-05-05T12:16:07.974Z,3.20
2023-05-05T12:18:34.238Z,2.70
2023-05-05T12:21:00.439Z,2.80
2023-05-05T12:23:29.275Z,3.23
2023-05-05T12:25:55.644Z,2.80
2023-05-05T12:28:22.579Z,3.40
2023-05-05T12:30:56.995Z,2.87
2023-05-05T12:33:23.333Z,3.57
2023-05-05T12:35:49.549Z,4.07
2023-05-05T12:38:15.752Z,3.30
2023-05-05T12:40:43.095Z,3.53
2023-05-05T12:43:09.351Z,3.10
2023-05-05T12:45:36.598Z,3.17
2023-05-05T12:48:21.355Z,3.60
2023-05-05T12:50:47.630Z,3.47
2023-05-05T12:53:21.023Z,4.03
2023-05-05T12:55:47.333Z,3.70
2023-05-05T12:58:13.587Z,3.60
2023-05-05T13:00:42.902Z,4.13
2023-05-05T13:03:18.840Z,4.07
2023-05-05T13:05:45.082Z,4.13
2023-05-05T13:08:11.372Z,4.73
2023-05-05T13:10:40.631Z,4.63
2023-05-05T13:13:08.040Z,4.90
2023-05-05T13:15:35.458Z,4.53
2023-05-05T13:18:02.705Z,4.33
2023-05-05T13:20:29.106Z,4.40
2023-05-05T13:22:55.293Z,4.40
2023-05-05T13:25:21.481Z,4.13
2023-05-05T13:27:47.628Z,4.20
2023-05-05T13:30:14.665Z,4.63
2023-05-05T13:32:41.379Z,4.63
2023-05-05T13:35:09.088Z,4.20
2023-05-05T13:37:35.514Z,4.50
2023-05-05T13:40:01.779Z,4.90
2023-05-05T13:42:27.920Z,4.70
2023-05-05T13:44:54.283Z,4.93
2023-05-05T13:47:20.621Z,4.90
2023-05-05T13:49:48.017Z,5.10
2023-05-05T13:52:14.817Z,5.07
2023-05-05T13:54:41.125Z,4.60
2023-05-05T13:57:10.304Z,4.97
2023-05-05T13:59:36.573Z,5.27
2023-05-05T14:02:02.719Z,5.10
2023-05-05T14:04:29.015Z,5.20
2023-05-05T14:06:57.345Z,3.10
2023-05-05T14:09:24.274Z,4.37
2023-05-05T14:11:50.714Z,3.67
2023-05-05T14:14:17.286Z,3.90
2023-05-05T14:16:43.462Z,3.07
2023-05-05T14:19:09.722Z,2.50
2023-05-05T14:21:36.022Z,2.80
2023-05-05T14:24:02.318Z,2.30
2023-05-05T14:26:29.178Z,2.03
2023-05-05T14:28:55.548Z,2.40
2023-05-05T14:31:21.736Z,1.93
2023-05-05T14:33:48.120Z,2.30
2023-05-05T14:36:14.415Z,2.00
2023-05-05T14:38:42.109Z,2.00
2023-05-05T14:41:08.350Z,2.30
2023-05-05T14:43:36.022Z,2.20
2023-05-05T14:46:05.868Z,2.57
2023-05-05T14:48:32.667Z,2.30
2023-05-05T14:50:58.858Z,2.57
2023-05-05T14:53:24.997Z,2.47
2023-05-05T14:55:51.225Z,2.50
2023-05-05T14:58:21.524Z,2.03
2023-05-05T15:00:48.682Z,2.20
2023-05-05T15:03:15.189Z,2.20
2023-05-05T15:05:41.484Z,2.63
2023-05-05T15:08:07.757Z,2.77
2023-05-05T15:10:34.035Z,2.57
2023-05-05T15:13:00.434Z,2.80
2023-05-05T15:15:26.850Z,2.50
2023-05-05T15:17:53.751Z,3.07
2023-05-05T15:20:20.090Z,3.20
2023-05-05T15:22:47.847Z,3.00
2023-05-05T15:25:15.493Z,3.30
2023-05-05T15:27:41.781Z,2.60
2023-05-05T15:30:08.948Z,2.37
2023-05-05T15:32:35.160Z,2.47
2023-05-05T15:35:02.443Z,2.57
2023-05-05T15:37:30.032Z,2.97
2023-05-05T15:39:56.183Z,2.77
2023-05-05T15:42:23.658Z,3.07
2023-05-05T15:44:49.907Z,2.77
2023-05-05T15:47:16.309Z,2.50
2023-05-05T15:49:42.536Z,2.60
2023-05-05T15:52:09.721Z,2.80
2023-05-05T15:54:36.137Z,2.93
2023-05-05T15:57:02.572Z,3.37
2023-05-05T15:59:28.794Z,3.23
2023-05-05T16:01:55.221Z,3.10
2023-05-05T16:04:21.382Z,3.50
2023-05-05T16:06:47.688Z,3.30
2023-05-05T16:09:14.600Z,3.20
2023-05-05T16:11:40.819Z,3.10
2023-05-05T16:14:07.057Z,3.20
2023-05-05T16:16:33.227Z,4.00
2023-05-05T16:18:59.603Z,3.60
2023-05-05T16:21:26.634Z,3.93
2023-05-05T16:23:53.058Z,4.53
2023-05-05T16:26:20.362Z,3.87
2023-05-05T16:28:46.576Z,4.17
2023-05-05T16:31:12.794Z,4.70
2023-05-05T16:33:42.657Z,5.77
2023-05-05T16:36:10.033Z,6.20
2023-05-05T16:38:36.500Z,6.47
2023-05-05T16:41:02.737Z,6.37
2023-05-05T16:43:29.559Z,6.43
2023-05-05T16:45:55.747Z,7.07
2023-05-05T16:48:22.006Z,7.97
2023-05-05T16:50:48.727Z,11.33
2023-05-05T16:53:15.059Z,11.53
2023-05-05T16:55:41.198Z,12.50
2023-05-05T16:58:07.406Z,11.83
2023-05-05T17:00:34.260Z,10.77
2023-05-05T17:03:00.595Z,12.83
2023-05-05T17:05:27.181Z,12.13
2023-05-05T17:07:53.838Z,11.90
2023-05-05T17:10:20.280Z,10.93
2023-05-05T17:12:46.896Z,9.97
2023-05-05T17:15:13.222Z,10.10
2023-05-05T17:17:41.561Z,10.83
2023-05-05T17:20:10.383Z,10.33
2023-05-05T17:22:36.952Z,9.27
2023-05-05T17:25:04.350Z,9.17
2023-05-05T17:27:30.558Z,8.90
2023-05-05T17:29:56.737Z,9.67
2023-05-05T17:32:23.183Z,11.83
2023-05-05T17:34:50.272Z,10.83
2023-05-05T17:37:16.524Z,8.23
2023-05-05T17:39:42.678Z,7.27
2023-05-05T17:42:08.894Z,9.23
2023-05-05T17:44:35.109Z,13.13
2023-05-05T17:47:03.160Z,8.73
2023-05-05T17:49:29.361Z,9.53
2023-05-05T17:51:56.166Z,6.80
2023-05-05T17:54:22.287Z,7.00
2023-05-05T17:56:48.469Z,6.50
2023-05-05T17:59:14.884Z,6.20
2023-05-05T18:01:41.309Z,5.30
2023-05-05T18:04:07.613Z,5.60
2023-05-05T18:06:33.852Z,5.67
2023-05-05T18:09:00.649Z,5.63
2023-05-05T18:11:28.199Z,4.70
2023-05-05T18:13:54.726Z,5.03
2023-05-05T18:16:21.028Z,5.03
2023-05-05T18:18:47.405Z,5.00
2023-05-05T18:21:13.588Z,5.03
2023-05-05T18:23:40.164Z,4.90
2023-05-05T18:26:08.817Z,5.37
2023-05-05T18:28:36.165Z,5.27
2023-05-05T18:31:02.859Z,5.00
2023-05-05T18:33:29.026Z,5.43
2023-05-05T18:35:55.702Z,5.50
2023-05-05T18:38:21.909Z,5.30
2023-05-05T18:40:48.063Z,5.23
2023-05-05T18:43:15.190Z,5.93
2023-05-05T18:45:41.433Z,5.47
2023-05-05T18:48:07.865Z,5.47
2023-05-05T18:50:34.070Z,6.07
2023-05-05T18:53:00.200Z,6.03
2023-05-05T18:55:26.623Z,4.73
2023-05-05T18:57:52.767Z,4.97
2023-05-05T19:00:20.208Z,4.83
2023-05-05T19:02:46.519Z,5.10
2023-05-05T19:05:12.732Z,5.37
2023-05-05T19:07:40.378Z,5.80
2023-05-05T19:10:08.302Z,5.27
2023-05-05T19:12:35.021Z,4.43
2023-05-05T19:15:01.320Z,4.73
2023-05-05T19:17:28.301Z,4.93
2023-05-05T19:19:55.175Z,4.87
2023-05-05T19:22:22.766Z,4.53
2023-05-05T19:24:49.174Z,4.93
2023-05-05T19:27:16.863Z,4.97
2023-05-05T19:29:43.648Z,5.80
2023-05-05T19:32:10.153Z,5.70
2023-05-05T19:34:37.052Z,6.27
2023-05-05T19:37:03.264Z,6.50
2023-05-05T19:39:29.404Z,6.70
2023-05-05T19:41:55.683Z,7.03
2023-05-05T19:44:22.112Z,6.67
2023-05-05T19:46:48.441Z,6.50
2023-05-05T19:49:14.605Z,7.13
2023-05-05T19:51:41.922Z,7.23
2023-05-05T19:54:08.135Z,6.87
2023-05-05T19:56:34.266Z,7.97
2023-05-05T19:59:01.855Z,7.67
2023-05-05T20:01:28.942Z,7.23
2023-05-05T20:03:56.503Z,7.23
2023-05-05T20:06:23.317Z,6.70
2023-05-05T20:08:50.313Z,7.70
2023-05-05T20:11:16.704Z,8.37
2023-05-05T20:13:43.212Z,7.50
2023-05-05T20:16:09.618Z,7.67
2023-05-05T20:18:35.857Z,8.30
2023-05-05T20:21:02.360Z,8.10
2023-05-05T20:23:28.677Z,8.23
2023-05-05T20:25:55.860Z,7.53
2023-05-05T20:28:21.988Z,8.07
2023-05-05T20:30:48.139Z,8.07
2023-05-05T20:33:14.434Z,8.50
2023-05-05T20:35:40.642Z,8.10
2023-05-05T20:38:08.791Z,8.30
2023-05-05T20:40:35.689Z,7.53
2023-05-05T20:43:02.848Z,7.30
2023-05-05T20:45:30.856Z,7.00
2023-05-05T20:47:57.451Z,7.20
2023-05-05T20:50:23.806Z,8.10
2023-05-05T20:52:49.925Z,8.43
2023-05-05T20:55:16.181Z,7.80
2023-05-05T20:57:42.321Z,7.70
2023-05-05T21:00:10.195Z,7.70
2023-05-05T21:02:37.286Z,6.83
2023-05-05T21:05:04.365Z,8.70
2023-05-05T21:07:33.305Z,8.03
2023-05-05T21:09:59.484Z,7.73
2023-05-05T21:12:25.716Z,8.13
2023-05-05T21:14:52.190Z,8.07
2023-05-05T21:17:19.013Z,8.40
2023-05-05T21:19:45.416Z,8.30
2023-05-05T21:22:11.588Z,8.67
2023-05-05T21:24:37.851Z,8.50
2023-05-05T21:27:04.040Z,8.43
2023-05-05T21:29:33.485Z,9.97
2023-05-05T21:32:00.762Z,10.37
2023-05-05T21:34:27.622Z,11.63
2023-05-05T21:36:53.857Z,10.20
2023-05-05T21:39:20.044Z,10.70
2023-05-05T21:41:46.270Z,11.10
2023-05-05T21:44:12.613Z,10.67
2023-05-05T21:46:38.867Z,11.40
2023-05-05T21:49:12.395Z,10.33
2023-05-05T21:51:39.672Z,10.50
2023-05-05T21:54:05.862Z,10.00
2023-05-05T21:56:32.257Z,10.00
2023-05-05T21:58:58.425Z,10.37
2023-05-05T22:01:24.670Z,9.50
2023-05-05T22:03:50.945Z,9.33
2023-05-05T22:06:19.515Z,8.67
2023-05-05T22:08:46.929Z,8.50
2023-05-05T22:11:13.095Z,8.67
2023-05-05T22:13:40.077Z,8.60
2023-05-05T22:16:06.642Z,8.00
2023-05-05T22:18:32.818Z,9.67
2023-05-05T22:21:00.039Z,9.50
2023-05-05T22:23:26.257Z,9.47
2023-05-05T22:25:53.396Z,9.53
2023-05-05T22:28:20.517Z,9.97
2023-05-05T22:30:46.739Z,10.23
2023-05-05T22:33:12.921Z,9.93
2023-05-05T22:35:39.163Z,9.87
2023-05-05T22:38:05.618Z,9.67
2023-05-05T22:40:31.753Z,10.10
2023-05-05T22:42:58.576Z,11.20
2023-05-05T22:45:25.322Z,11.27
2023-05-05T22:47:51.579Z,11.27
2023-05-05T22:50:17.831Z,11.80
2023-05-05T22:52:44.049Z,12.53
2023-05-05T22:55:12.168Z,14.03
2023-05-05T22:57:38.474Z,15.57
2023-05-05T23:00:07.893Z,14.70
2023-05-05T23:02:34.369Z,15.07
2023-05-05T23:05:00.519Z,15.17
2023-05-05T23:07:26.834Z,16.33
2023-05-05T23:09:53.221Z,15.20
2023-05-05T23:12:19.367Z,16.50
2023-05-05T23:14:45.581Z,15.60
2023-05-05T23:17:12.411Z,17.37
2023-05-05T23:19:38.781Z,16.83
2023-05-05T23:22:05.131Z,17.23
2023-05-05T23:24:31.661Z,17.37
2023-05-05T23:26:59.190Z,18.63
2023-05-05T23:29:25.630Z,18.90
2023-05-05T23:31:51.812Z,20.00
2023-05-05T23:34:18.624Z,21.03
2023-05-05T23:36:44.807Z,20.80
2023-05-05T23:39:11.509Z,20.47
2023-05-05T23:41:37.737Z,21.07
2023-05-05T23:44:03.894Z,23.03
2023-05-05T23:46:30.224Z,20.27
2023-05-05T23:48:56.387Z,22.83
2023-05-05T23:51:23.316Z,20.77
2023-05-05T23:53:49.481Z,21.00
2023-05-05T23:56:15.701Z,21.50
2023-05-05T23:58:41.860Z,22.30
